Time;durP1;ratioP1;P1;durP2;ratioP2;P2;SDS_P1;SDS_P2;PMS_P1;PMS_P2;Temp;Humidity;BMP_temperature;BMP_pressure;BME280_temperature;BME280_humidity;BME280_pressure;Samples;Min_cycle;Max_cycle;Signal;HPM_P1;HPM_P2
2022/04/11 00:01:12;;;;;;;6.10;2.70;;;4.30;99.90;;;;;;5079806;28;20517;-68
2022/04/11 00:03:38;;;;;;;9.32;3.25;;;4.30;99.90;;;;;;5080209;28;20051;-68
2022/04/11 00:06:03;;;;;;;5.93;2.85;;;4.30;99.90;;;;;;5079581;28;20051;-68
2022/04/11 00:08:29;;;;;;;8.18;3.10;;;4.30;99.90;;;;;;5082414;28;20042;-68
2022/04/11 00:10:54;;;;;;;6.43;3.20;;;4.30;99.90;;;;;;5083741;28;20132;-68
2022/04/11 00:13:20;;;;;;;7.07;2.78;;;4.30;99.90;;;;;;5083840;28;20079;-68
2022/04/11 00:15:46;;;;;;;8.40;3.38;;;4.20;99.90;;;;;;5083437;28;20129;-68
2022/04/11 00:18:11;;;;;;;6.15;3.20;;;4.20;99.90;;;;;;5081371;28;20040;-68
2022/04/11 00:20:37;;;;;;;6.95;3.25;;;4.20;99.90;;;;;;5083584;28;20044;-68
2022/04/11 00:23:04;;;;;;;6.05;3.30;;;4.20;99.90;;;;;;5083223;28;20032;-68
2022/04/11 00:25:30;;;;;;;7.85;3.83;;;4.10;99.90;;;;;;5079438;28;20661;-68
2022/04/11 00:27:55;;;;;;;13.57;4.40;;;4.10;99.90;;;;;;5080285;28;20109;-68
2022/04/11 00:30:21;;;;;;;6.57;3.63;;;4.10;99.90;;;;;;5080736;28;20115;-69
2022/04/11 00:32:46;;;;;;;7.43;3.85;;;4.10;99.90;;;;;;5080450;28;20403;-68
2022/04/11 00:35:13;;;;;;;6.25;3.40;;;4.10;99.90;;;;;;5079160;28;20040;-68
2022/04/11 00:37:39;;;;;;;8.07;4.00;;;4.10;99.90;;;;;;5078282;28;20040;-68
2022/04/11 00:40:07;;;;;;;7.22;3.60;;;4.10;99.90;;;;;;5078968;28;20047;-69
2022/04/11 00:42:32;;;;;;;5.88;3.25;;;4.00;99.90;;;;;;5081322;28;20031;-69
2022/04/11 00:44:59;;;;;;;6.78;3.60;;;4.00;99.90;;;;;;5080314;28;21629;-68
2022/04/11 00:47:26;;;;;;;6.60;3.65;;;4.00;99.90;;;;;;5079474;28;20063;-68
2022/04/11 00:49:55;;;;;;;7.47;4.10;;;4.00;99.90;;;;;;5081063;28;20048;-69
2022/04/11 00:52:21;;;;;;;8.50;3.72;;;4.00;99.90;;;;;;5076994;28;20053;-68
2022/04/11 00:54:47;;;;;;;7.47;3.80;;;3.90;99.90;;;;;;5083843;28;20055;-68
2022/04/11 00:57:15;;;;;;;8.73;3.78;;;4.00;99.90;;;;;;5086430;28;20066;-68
2022/04/11 00:59:41;;;;;;;9.48;4.20;;;3.90;99.90;;;;;;5067463;28;20036;-68
2022/04/11 01:02:07;;;;;;;7.18;3.40;;;3.90;99.90;;;;;;5086829;28;20131;-68
2022/04/11 01:04:32;;;;;;;7.32;3.50;;;3.90;99.90;;;;;;5086485;28;20115;-68
2022/04/11 01:06:58;;;;;;;8.38;3.20;;;3.80;99.90;;;;;;5085244;28;20043;-68
2022/04/11 01:09:25;;;;;;;5.03;2.95;;;3.80;99.90;;;;;;5083863;28;20141;-68
2022/04/11 01:11:51;;;;;;;8.40;3.35;;;3.80;99.90;;;;;;5084834;28;20036;-68
2022/04/11 01:14:17;;;;;;;6.22;3.05;;;3.80;99.90;;;;;;5087225;28;20072;-69
2022/04/11 01:16:52;;;;;;;6.28;2.90;;;3.70;99.90;;;;;;5083081;28;20036;-68
2022/04/11 01:19:19;;;;;;;6.50;3.03;;;3.70;99.90;;;;;;5085229;28;20032;-68
2022/04/11 01:21:46;;;;;;;6.18;3.03;;;3.60;99.90;;;;;;5082127;28;20466;-68
2022/04/11 01:24:12;;;;;;;8.07;3.42;;;3.60;99.90;;;;;;5082373;28;20044;-69
2022/04/11 01:26:38;;;;;;;6.50;3.13;;;3.60;99.90;;;;;;5084761;28;20043;-68
2022/04/11 01:29:04;;;;;;;7.32;3.80;;;3.60;99.90;;;;;;5077156;28;20036;-68
2022/04/11 01:31:30;;;;;;;6.88;3.05;;;3.60;99.90;;;;;;5083374;28;20115;-68
2022/04/11 01:33:57;;;;;;;7.55;3.42;;;3.60;99.90;;;;;;5082324;28;20127;-68
2022/04/11 01:36:22;;;;;;;6.53;3.47;;;3.50;99.90;;;;;;5063347;28;20073;-68
2022/04/11 01:38:48;;;;;;;5.60;3.58;;;3.50;99.90;;;;;;5081188;28;20090;-68
2022/04/11 01:41:14;;;;;;;7.47;3.08;;;3.50;99.90;;;;;;5082891;28;20098;-68
2022/04/11 01:43:39;;;;;;;6.88;3.40;;;3.40;99.90;;;;;;5083340;28;20094;-68
2022/04/11 01:46:05;;;;;;;6.57;3.28;;;3.50;99.90;;;;;;5081221;28;20044;-68
2022/04/11 01:48:30;;;;;;;9.15;3.80;;;3.40;99.90;;;;;;5084505;28;20032;-68
2022/04/11 01:50:56;;;;;;;5.60;3.00;;;3.40;99.90;;;;;;5081331;28;20384;-68
2022/04/11 01:53:21;;;;;;;5.57;2.83;;;3.40;99.90;;;;;;5082745;28;20048;-68
2022/04/11 01:55:47;;;;;;;4.10;2.60;;;3.40;99.90;;;;;;5086522;28;20051;-68
2022/04/11 01:58:13;;;;;;;5.40;2.45;;;3.30;99.90;;;;;;5084599;28;20043;-68
2022/04/11 02:00:40;;;;;;;6.30;2.58;;;3.30;99.90;;;;;;5085010;28;20044;-68
2022/04/11 02:03:07;;;;;;;5.68;2.42;;;3.30;99.90;;;;;;5084372;28;20048;-68
2022/04/11 02:05:33;;;;;;;5.95;2.22;;;3.30;99.90;;;;;;5081125;28;20475;-68
2022/04/11 02:07:59;;;;;;;6.75;2.45;;;3.30;99.90;;;;;;5084541;28;20048;-68
2022/04/11 02:10:25;;;;;;;6.00;2.45;;;3.30;99.90;;;;;;5084392;28;20838;-68
2022/04/11 02:12:52;;;;;;;4.93;2.40;;;3.30;99.90;;;;;;5087389;28;20047;-68
2022/04/11 02:15:17;;;;;;;4.30;2.40;;;3.30;99.90;;;;;;5084750;28;20048;-68
2022/04/11 02:17:46;;;;;;;4.82;2.45;;;3.30;99.90;;;;;;5088231;28;20388;-68
2022/04/11 02:20:12;;;;;;;5.45;2.40;;;3.30;99.90;;;;;;5089666;28;20127;-68
2022/04/11 02:22:48;;;;;;;5.10;2.28;;;3.30;99.90;;;;;;5085760;28;20043;-68
2022/04/11 02:25:15;;;;;;;6.38;2.30;;;3.30;99.90;;;;;;5087202;28;20051;-68
2022/04/11 02:27:41;;;;;;;5.78;2.38;;;3.20;99.90;;;;;;5087708;28;20575;-68
2022/04/11 02:30:08;;;;;;;6.28;2.50;;;3.20;99.90;;;;;;5088467;28;20641;-68
2022/04/11 02:32:33;;;;;;;5.40;2.60;;;3.20;99.90;;;;;;5087332;28;20033;-68
2022/04/11 02:34:59;;;;;;;5.72;2.10;;;3.30;99.90;;;;;;5090778;28;20040;-68
2022/04/11 02:37:24;;;;;;;4.72;2.30;;;3.20;99.90;;;;;;5087040;28;20070;-68
2022/04/11 02:39:50;;;;;;;6.28;2.22;;;3.20;99.90;;;;;;5085786;28;20067;-68
2022/04/11 02:42:23;;;;;;;5.78;2.10;;;3.30;99.90;;;;;;5087256;28;20040;-68
2022/04/11 02:44:49;;;;;;;5.53;2.30;;;3.20;99.90;;;;;;5089196;28;20036;-68
2022/04/11 02:47:14;;;;;;;4.43;2.47;;;3.20;99.90;;;;;;5089724;28;20086;-68
2022/04/11 02:49:40;;;;;;;5.28;2.08;;;3.20;99.90;;;;;;5088342;28;20476;-68
2022/04/11 02:52:06;;;;;;;5.03;2.00;;;3.20;99.90;;;;;;5090042;28;20117;-69
2022/04/11 02:54:32;;;;;;;6.22;2.45;;;3.20;99.90;;;;;;5086482;28;20096;-68
2022/04/11 02:56:57;;;;;;;4.65;2.30;;;3.20;99.90;;;;;;5086665;28;20076;-68
2022/04/11 02:59:23;;;;;;;5.22;2.38;;;3.20;99.90;;;;;;5089076;28;20060;-68
2022/04/11 03:01:49;;;;;;;4.90;2.22;;;3.20;99.90;;;;;;5086171;28;20533;-68
2022/04/11 03:04:15;;;;;;;6.78;2.45;;;3.10;99.90;;;;;;5090512;28;20119;-68
2022/04/11 03:06:41;;;;;;;5.05;2.60;;;3.10;99.90;;;;;;5089752;28;20063;-68
2022/04/11 03:09:08;;;;;;;5.63;2.40;;;3.10;99.90;;;;;;5086821;28;20143;-68
2022/04/11 03:11:34;;;;;;;4.65;2.30;;;3.10;99.90;;;;;;5086908;28;20072;-67
2022/04/11 03:14:00;;;;;;;5.07;2.30;;;3.00;99.90;;;;;;5090492;28;20040;-67
2022/04/11 03:16:26;;;;;;;5.88;2.72;;;3.00;99.90;;;;;;5083923;28;20056;-68
2022/04/11 03:18:52;;;;;;;4.63;2.47;;;2.90;99.90;;;;;;5086031;28;20537;-68
2022/04/11 03:21:17;;;;;;;4.95;2.40;;;2.90;99.90;;;;;;5081508;28;20072;-68
2022/04/11 03:23:43;;;;;;;5.35;2.20;;;2.90;99.90;;;;;;5089376;28;20538;-68
2022/04/11 03:26:08;;;;;;;5.75;2.80;;;3.00;99.90;;;;;;5076248;28;20135;-68
2022/04/11 03:28:34;;;;;;;5.70;2.33;;;2.90;99.90;;;;;;5085925;28;20074;-68
2022/04/11 03:31:00;;;;;;;5.20;2.20;;;3.00;99.90;;;;;;5088319;28;20408;-68
2022/04/11 03:33:25;;;;;;;5.10;2.28;;;3.00;99.90;;;;;;5084887;28;20521;-68
2022/04/11 03:35:51;;;;;;;4.85;2.42;;;2.90;99.90;;;;;;5085291;28;20122;-68
2022/04/11 03:38:17;;;;;;;5.72;2.50;;;2.90;99.90;;;;;;5083986;28;20064;-68
2022/04/11 03:40:42;;;;;;;6.13;2.50;;;2.90;99.90;;;;;;5082609;28;20131;-68
2022/04/11 03:43:08;;;;;;;6.22;2.47;;;2.90;99.90;;;;;;5085443;28;20105;-68
2022/04/11 03:45:33;;;;;;;5.50;2.60;;;2.90;99.90;;;;;;5086773;28;20043;-68
2022/04/11 03:47:59;;;;;;;6.22;2.58;;;2.90;99.90;;;;;;5086275;28;20052;-68
2022/04/11 03:50:25;;;;;;;5.25;2.30;;;2.90;99.90;;;;;;5088158;28;20053;-68
2022/04/11 03:52:50;;;;;;;7.13;2.42;;;2.90;99.90;;;;;;5089223;28;20056;-69
2022/04/11 03:55:16;;;;;;;5.68;2.60;;;2.90;99.90;;;;;;5082546;28;20063;-68
2022/04/11 03:57:41;;;;;;;5.25;2.40;;;2.90;99.90;;;;;;5084630;28;20055;-68
2022/04/11 04:00:08;;;;;;;5.43;2.55;;;2.90;99.90;;;;;;5084261;28;20127;-68
2022/04/11 04:02:34;;;;;;;7.32;2.67;;;2.90;99.90;;;;;;5083312;28;20456;-68
2022/04/11 04:04:59;;;;;;;5.00;2.58;;;2.90;99.90;;;;;;5088988;28;20044;-68
2022/04/11 04:07:25;;;;;;;5.03;2.63;;;2.90;99.90;;;;;;5086207;28;20101;-68
2022/04/11 04:09:51;;;;;;;5.30;2.80;;;3.00;99.90;;;;;;5086486;28;20043;-68
2022/04/11 04:12:20;;;;;;;7.78;2.95;;;3.00;99.90;;;;;;5087710;28;20101;-68
2022/04/11 04:14:47;;;;;;;5.47;3.00;;;3.00;99.90;;;;;;5086805;28;20055;-68
2022/04/11 04:17:12;;;;;;;6.18;2.72;;;3.00;99.90;;;;;;5082202;28;20060;-68
2022/04/11 04:19:38;;;;;;;7.60;3.10;;;3.00;99.90;;;;;;5077255;28;20060;-68
2022/04/11 04:22:04;;;;;;;6.13;3.00;;;3.00;99.90;;;;;;5085236;28;20139;-68
2022/04/11 04:24:32;;;;;;;10.25;3.17;;;3.10;99.90;;;;;;5080422;28;20325;-68
2022/04/11 04:26:57;;;;;;;5.65;3.03;;;3.10;99.90;;;;;;5081322;28;20100;-68
2022/04/11 04:29:23;;;;;;;7.15;3.08;;;3.20;99.90;;;;;;5082837;28;20084;-68
2022/04/11 04:31:49;;;;;;;9.40;2.97;;;3.20;99.90;;;;;;5078548;28;20036;-68
2022/04/11 04:34:15;;;;;;;5.05;2.60;;;3.20;99.90;;;;;;5091897;28;20377;-67
2022/04/11 04:36:41;;;;;;;7.25;3.30;;;3.20;99.90;;;;;;5081072;28;20094;-68
2022/04/11 04:39:07;;;;;;;8.65;2.70;;;3.20;99.90;;;;;;5083450;28;20039;-68
2022/04/11 04:41:33;;;;;;;6.07;2.78;;;3.20;99.90;;;;;;5082571;28;20106;-68
2022/04/11 04:43:59;;;;;;;6.50;2.80;;;3.20;99.90;;;;;;5078898;28;20046;-68
2022/04/11 04:46:24;;;;;;;5.78;2.58;;;3.20;99.90;;;;;;5086751;28;20039;-68
2022/04/11 04:48:50;;;;;;;5.90;2.70;;;3.20;99.90;;;;;;5084333;28;20043;-68
2022/04/11 04:51:18;;;;;;;5.45;2.80;;;3.30;99.90;;;;;;5079231;28;20049;-68
2022/04/11 04:53:43;;;;;;;6.53;2.95;;;3.20;99.90;;;;;;5080541;28;20074;-69
2022/04/11 04:56:09;;;;;;;5.72;3.20;;;3.30;99.90;;;;;;5077550;28;20048;-68
2022/04/11 04:58:34;;;;;;;6.20;3.40;;;3.40;99.90;;;;;;5083056;28;20487;-68
2022/04/11 05:01:00;;;;;;;7.15;3.38;;;3.40;99.90;;;;;;5083805;28;20122;-68
2022/04/11 05:03:26;;;;;;;7.20;3.33;;;3.40;99.90;;;;;;5079803;28;20044;-68
2022/04/11 05:05:52;;;;;;;7.28;3.45;;;3.40;99.90;;;;;;5088266;28;20047;-68
2022/04/11 05:08:17;;;;;;;6.03;3.25;;;3.40;99.90;;;;;;5083766;28;20036;-67
2022/04/11 05:10:43;;;;;;;7.40;3.22;;;3.40;99.90;;;;;;5083802;28;20044;-68
2022/04/11 05:13:09;;;;;;;7.57;3.45;;;3.50;99.90;;;;;;5085157;28;20122;-68
2022/04/11 05:15:34;;;;;;;5.30;2.90;;;3.50;99.90;;;;;;5083438;28;20116;-68
2022/04/11 05:18:00;;;;;;;7.38;3.60;;;3.50;99.90;;;;;;5083854;28;20051;-68
2022/04/11 05:20:26;;;;;;;7.25;3.22;;;3.60;99.90;;;;;;5088426;28;20043;-68
2022/04/11 05:22:51;;;;;;;8.25;4.15;;;3.60;99.90;;;;;;5087208;28;20044;-68
2022/04/11 05:25:17;;;;;;;5.47;3.25;;;3.60;99.90;;;;;;5078470;28;20532;-68
2022/04/11 05:27:42;;;;;;;7.05;3.10;;;3.60;99.90;;;;;;5078090;28;20116;-68
2022/04/11 05:30:08;;;;;;;5.60;3.03;;;3.60;99.90;;;;;;5078519;28;20044;-67
2022/04/11 05:32:34;;;;;;;7.55;3.72;;;3.60;99.90;;;;;;5076436;28;20052;-67
2022/04/11 05:35:00;;;;;;;8.35;3.80;;;3.70;99.90;;;;;;5080023;28;20036;-67
2022/04/11 05:37:26;;;;;;;5.97;3.05;;;3.70;99.90;;;;;;5079670;28;20128;-68
2022/04/11 05:39:51;;;;;;;8.57;3.60;;;3.70;99.90;;;;;;5081558;28;20483;-68
2022/04/11 05:42:17;;;;;;;8.80;3.60;;;3.80;99.90;;;;;;5085311;28;20032;-67
2022/04/11 05:44:42;;;;;;;5.82;3.03;;;3.90;99.90;;;;;;5085538;28;20130;-67
2022/04/11 05:47:08;;;;;;;7.63;3.40;;;3.90;99.90;;;;;;5083282;28;20117;-67
2022/04/11 05:49:33;;;;;;;6.38;3.42;;;4.00;99.90;;;;;;5084742;28;20553;-67
2022/04/11 05:51:59;;;;;;;7.25;3.42;;;4.00;99.90;;;;;;5085610;28;20126;-67
2022/04/11 05:54:25;;;;;;;9.27;3.78;;;4.10;99.90;;;;;;5082448;28;20047;-68
2022/04/11 05:56:52;;;;;;;6.88;3.47;;;4.10;99.90;;;;;;5074564;28;20111;-68
2022/04/11 05:59:18;;;;;;;7.93;3.50;;;4.10;99.90;;;;;;5084173;28;20048;-67
2022/04/11 06:01:43;;;;;;;7.65;3.40;;;4.20;99.90;;;;;;5082388;28;20044;-68
2022/04/11 06:04:09;;;;;;;5.63;3.20;;;4.20;99.90;;;;;;5085726;28;20052;-68
2022/04/11 06:06:36;;;;;;;7.80;3.88;;;4.30;99.90;;;;;;5085283;28;20155;-68
2022/04/11 06:09:02;;;;;;;6.88;3.60;;;4.30;99.90;;;;;;5084010;28;20050;-69
2022/04/11 06:11:28;;;;;;;11.02;3.80;;;4.40;99.90;;;;;;5085799;28;20054;-68
2022/04/11 06:13:54;;;;;;;7.82;3.60;;;4.40;99.90;;;;;;5085406;28;20036;-69
2022/04/11 06:16:19;;;;;;;6.35;3.75;;;4.50;99.90;;;;;;5087106;28;20163;-68
2022/04/11 06:18:45;;;;;;;9.35;4.30;;;4.60;99.90;;;;;;5085001;28;20032;-68
2022/04/11 06:21:10;;;;;;;8.20;3.88;;;4.70;99.90;;;;;;5083453;28;20040;-68
2022/04/11 06:23:36;;;;;;;7.95;3.60;;;4.70;99.90;;;;;;5084904;28;20065;-67
2022/04/11 06:26:02;;;;;;;8.35;3.58;;;4.80;99.90;;;;;;5084050;28;20040;-68
2022/04/11 06:28:27;;;;;;;7.38;3.63;;;5.00;99.90;;;;;;5084652;28;20044;-68
2022/04/11 06:30:53;;;;;;;8.10;3.90;;;5.10;99.90;;;;;;5080512;28;20048;-67
2022/04/11 06:33:18;;;;;;;7.32;3.40;;;5.10;99.90;;;;;;5083159;28;20063;-68
2022/04/11 06:35:44;;;;;;;8.88;3.67;;;5.20;99.90;;;;;;5084940;28;20044;-69
2022/04/11 06:38:10;;;;;;;8.20;3.88;;;5.30;99.90;;;;;;5081535;28;20360;-68
2022/04/11 06:40:35;;;;;;;7.40;3.50;;;5.50;99.90;;;;;;5083376;28;20097;-68
2022/04/11 06:43:01;;;;;;;9.02;3.72;;;5.60;99.90;;;;;;5083131;28;20117;-68
2022/04/11 06:45:26;;;;;;;6.93;3.65;;;5.70;99.90;;;;;;5080666;28;21378;-69
2022/04/11 06:47:52;;;;;;;6.85;3.50;;;5.80;99.90;;;;;;5082939;28;20306;-69
2022/04/11 06:50:18;;;;;;;10.77;4.20;;;5.90;99.90;;;;;;5085092;28;20123;-69
2022/04/11 06:52:43;;;;;;;11.73;4.57;;;5.90;99.90;;;;;;5082066;28;20058;-68
2022/04/11 06:55:09;;;;;;;8.23;4.10;;;6.10;99.90;;;;;;5085716;28;20499;-69
2022/04/11 06:57:34;;;;;;;9.75;4.22;;;6.10;99.90;;;;;;5079924;28;20044;-68
2022/04/11 07:00:01;;;;;;;8.93;4.70;;;6.30;99.90;;;;;;5085827;28;20484;-68
2022/04/11 07:02:27;;;;;;;10.10;4.32;;;6.40;99.90;;;;;;5085810;28;20460;-69
2022/04/11 07:04:52;;;;;;;8.18;4.20;;;6.50;99.90;;;;;;5086763;28;20354;-69
2022/04/11 07:07:19;;;;;;;8.50;4.35;;;6.50;99.90;;;;;;5089634;28;20040;-68
2022/04/11 07:09:46;;;;;;;8.93;4.88;;;6.60;99.90;;;;;;5087249;28;20116;-68
2022/04/11 07:12:11;;;;;;;8.60;4.65;;;6.60;99.90;;;;;;5082396;28;20051;-68
2022/04/11 07:14:37;;;;;;;7.95;4.57;;;6.70;99.90;;;;;;5083216;28;20036;-69
2022/04/11 07:17:03;;;;;;;11.38;4.63;;;6.80;99.90;;;;;;5086900;28;20058;-68
2022/04/11 07:19:29;;;;;;;8.75;4.40;;;6.90;99.90;;;;;;5085121;28;20036;-70
2022/04/11 07:21:54;;;;;;;7.28;4.40;;;7.00;99.90;;;;;;5080771;28;20074;-69
2022/04/11 07:24:20;;;;;;;8.73;4.93;;;7.10;99.90;;;;;;5086647;28;20044;-69
2022/04/11 07:26:45;;;;;;;9.57;4.53;;;7.10;99.90;;;;;;5087489;28;20048;-69
2022/04/11 07:29:11;;;;;;;7.32;4.85;;;7.20;99.90;;;;;;5080621;28;20166;-68
2022/04/11 07:31:37;;;;;;;9.23;5.00;;;7.30;99.90;;;;;;5075662;28;20241;-69
2022/04/11 07:34:03;;;;;;;8.30;4.78;;;7.40;99.90;;;;;;5088694;28;20047;-70
2022/04/11 07:36:29;;;;;;;8.65;4.90;;;7.60;99.90;;;;;;5086356;28;20123;-70
2022/04/11 07:38:58;;;;;;;9.40;5.25;;;7.70;99.90;;;;;;5083407;28;20044;-69
2022/04/11 07:41:24;;;;;;;10.13;5.35;;;7.90;99.90;;;;;;5087155;28;20047;-69
2022/04/11 07:43:51;;;;;;;10.40;4.68;;;8.00;99.90;;;;;;5085790;28;20387;-69
2022/04/11 07:46:16;;;;;;;7.43;5.20;;;8.10;99.90;;;;;;5085628;28;20047;-69
2022/04/11 07:48:42;;;;;;;9.23;5.47;;;8.20;99.90;;;;;;5081789;28;20047;-69
2022/04/11 07:51:07;;;;;;;9.30;5.38;;;8.30;99.90;;;;;;5087557;28;20452;-69
2022/04/11 07:53:33;;;;;;;10.30;5.63;;;8.40;99.90;;;;;;5084471;28;20452;-69
2022/04/11 07:55:58;;;;;;;8.90;5.53;;;8.40;99.90;;;;;;5086476;28;20051;-69
2022/04/11 07:58:24;;;;;;;10.48;5.22;;;8.50;99.90;;;;;;5082374;28;20495;-69
2022/04/11 08:00:52;;;;;;;10.07;5.40;;;8.70;99.90;;;;;;5088856;28;20469;-69
2022/04/11 08:03:18;;;;;;;8.90;5.53;;;8.90;99.90;;;;;;5077550;28;20048;-69
2022/04/11 08:05:44;;;;;;;8.85;5.22;;;9.10;99.90;;;;;;5086485;28;20152;-69
2022/04/11 08:08:10;;;;;;;8.77;5.68;;;9.30;99.90;;;;;;5086147;28;20075;-69
2022/04/11 08:10:36;;;;;;;9.25;5.38;;;9.50;99.90;;;;;;5085937;28;20352;-69
2022/04/11 08:13:02;;;;;;;9.75;5.80;;;9.60;99.90;;;;;;5081787;28;20040;-70
2022/04/11 08:15:29;;;;;;;9.20;5.43;;;9.70;99.90;;;;;;5083051;28;20275;-69
2022/04/11 08:17:56;;;;;;;12.60;6.05;;;9.80;99.90;;;;;;5084579;28;20417;-69
2022/04/11 08:20:22;;;;;;;8.15;6.10;;;10.00;99.90;;;;;;5086708;28;20055;-69
2022/04/11 08:22:48;;;;;;;9.80;5.28;;;10.20;99.90;;;;;;5086211;28;20036;-69
2022/04/11 08:25:14;;;;;;;10.57;5.68;;;10.40;99.90;;;;;;5082774;28;20055;-69
2022/04/11 08:27:40;;;;;;;8.35;5.32;;;10.50;99.60;;;;;;5085302;28;20050;-69
2022/04/11 08:30:06;;;;;;;8.30;5.38;;;10.50;99.00;;;;;;5084189;28;20048;-69
2022/04/11 08:32:41;;;;;;;10.27;5.30;;;10.60;98.20;;;;;;5084843;28;20043;-69
2022/04/11 08:35:08;;;;;;;8.07;5.10;;;10.50;96.70;;;;;;5080631;28;20052;-70
2022/04/11 08:37:40;;;;;;;9.55;5.80;;;10.50;97.60;;;;;;5074623;28;20154;-69
2022/04/11 08:40:06;;;;;;;9.52;5.97;;;10.50;97.90;;;;;;5076580;28;20091;-69
2022/04/11 08:42:32;;;;;;;9.65;5.20;;;10.60;98.10;;;;;;5074536;28;20423;-69
2022/04/11 08:44:59;;;;;;;8.82;6.05;;;10.60;97.80;;;;;;5080514;28;20048;-70
2022/04/11 08:47:25;;;;;;;9.32;5.68;;;10.70;98.20;;;;;;5080848;28;20052;-70
2022/04/11 08:49:53;;;;;;;9.48;5.72;;;10.70;97.90;;;;;;5077683;28;20184;-69
2022/04/11 08:52:20;;;;;;;9.20;5.75;;;10.80;97.30;;;;;;5078488;28;20079;-69
2022/04/11 08:54:46;;;;;;;11.30;6.22;;;10.90;96.70;;;;;;5080717;28;20048;-69
2022/04/11 08:57:11;;;;;;;9.80;5.50;;;11.00;96.10;;;;;;5078318;28;20056;-69
2022/04/11 08:59:37;;;;;;;7.85;5.25;;;11.00;93.70;;;;;;5081061;28;20522;-70
2022/04/11 09:02:09;;;;;;;8.32;5.28;;;11.20;93.80;;;;;;5080018;28;20040;-70
2022/04/11 09:04:50;;;;;;;9.30;5.60;;;11.20;93.10;;;;;;5076433;28;20518;-70
2022/04/11 09:07:16;;;;;;;9.02;5.72;;;11.20;89.80;;;;;;5077524;28;20083;-69
2022/04/11 09:09:42;;;;;;;10.25;5.85;;;11.20;85.00;;;;;;5078992;28;20048;-69
2022/04/11 09:12:14;;;;;;;7.90;5.63;;;11.20;88.30;;;;;;5078140;28;20040;-69
2022/04/11 09:14:40;;;;;;;8.50;5.63;;;11.20;89.80;;;;;;5076356;28;20064;-69
2022/04/11 09:17:06;;;;;;;8.43;5.60;;;11.30;90.70;;;;;;5076923;28;20036;-70
2022/04/11 09:19:32;;;;;;;8.82;5.63;;;11.30;90.30;;;;;;5078824;28;20566;-69
2022/04/11 09:21:58;;;;;;;8.95;5.57;;;11.30;88.10;;;;;;5075561;28;20352;-69
2022/04/11 09:24:26;;;;;;;10.13;5.88;;;11.30;88.70;;;;;;5078458;28;20452;-69
2022/04/11 09:26:55;;;;;;;11.90;6.50;;;11.20;84.70;;;;;;5079640;28;20090;-69
2022/04/11 09:29:30;;;;;;;11.23;6.20;;;11.20;87.60;;;;;;5075350;28;20070;-70
2022/04/11 09:32:03;;;;;;;9.57;5.70;;;11.30;90.10;;;;;;5076767;28;20502;-69
2022/04/11 09:34:28;;;;;;;8.57;6.07;;;11.40;90.30;;;;;;5078822;28;20079;-70
2022/04/11 09:37:00;;;;;;;9.18;5.60;;;11.40;87.30;;;;;;5078495;28;20068;-69
2022/04/11 09:39:36;;;;;;;10.52;6.40;;;11.50;87.20;;;;;;5077118;28;20032;-69
2022/04/11 09:42:05;;;;;;;8.75;5.30;;;11.50;87.90;;;;;;5075194;28;20489;-69
2022/04/11 09:44:32;;;;;;;10.55;5.60;;;11.60;87.90;;;;;;5075450;28;20173;-69
2022/04/11 09:47:04;;;;;;;9.80;5.55;;;11.60;87.70;;;;;;5077557;28;20040;-69
2022/04/11 09:49:30;;;;;;;9.27;5.50;;;11.70;86.70;;;;;;5059401;28;20078;-69
2022/04/11 09:52:11;;;;;;;10.32;5.53;;;11.80;85.10;;;;;;5071963;28;20047;-69
2022/04/11 09:54:40;;;;;;;12.60;6.68;;;11.80;81.20;;;;;;5080700;28;20058;-69
2022/04/11 09:57:08;;;;;;;10.88;6.22;;;11.90;81.60;;;;;;5059278;28;20384;-69
2022/04/11 09:59:35;;;;;;;9.13;5.82;;;11.90;81.70;;;;;;5078160;28;20461;-69
2022/04/11 10:02:01;;;;;;;7.70;5.50;;;11.90;78.10;;;;;;5076983;28;20078;-69
2022/04/11 10:04:27;;;;;;;9.75;5.43;;;12.00;80.00;;;;;;5077093;28;20109;-70
2022/04/11 10:06:54;;;;;;;7.93;5.28;;;12.00;78.20;;;;;;5079563;28;20062;-69
2022/04/11 10:09:22;;;;;;;10.30;5.55;;;12.10;77.00;;;;;;5075595;28;20589;-69
2022/04/11 10:11:48;;;;;;;9.95;5.88;;;12.20;77.50;;;;;;5074969;28;20048;-70
2022/04/11 10:14:26;;;;;;;9.57;5.40;;;12.40;77.60;;;;;;5077511;28;20044;-69
2022/04/11 10:16:55;;;;;;;10.52;5.45;;;12.50;79.30;;;;;;5078400;28;20141;-69
2022/04/11 10:19:29;;;;;;;8.80;5.78;;;12.50;76.90;;;;;;5077354;28;20524;-69
2022/04/11 10:21:59;;;;;;;8.50;5.10;;;12.60;73.80;;;;;;5077000;28;20528;-69
2022/04/11 10:24:34;;;;;;;9.07;5.68;;;12.70;75.80;;;;;;5079977;28;20052;-69
2022/04/11 10:27:18;;;;;;;9.70;5.60;;;12.70;74.50;;;;;;5079857;28;20067;-69
2022/04/11 10:29:45;;;;;;;9.95;5.72;;;12.80;73.70;;;;;;5073956;28;20472;-69
2022/04/11 10:32:13;;;;;;;11.20;6.07;;;12.90;72.60;;;;;;5078465;28;20079;-69
2022/04/11 10:35:01;;;;;;;8.35;5.53;;;12.90;68.70;;;;;;5076189;28;20518;-69
2022/04/11 10:37:29;;;;;;;10.52;6.28;;;13.00;67.00;;;;;;5082435;28;20151;-69
2022/04/11 10:40:16;;;;;;;9.23;6.32;;;13.00;69.60;;;;;;5082143;28;20480;-69
2022/04/11 10:43:00;;;;;;;10.48;6.03;;;13.10;70.00;;;;;;5079999;28;20048;-69
2022/04/11 10:45:36;;;;;;;11.27;5.95;;;13.10;68.00;;;;;;5082142;28;20123;-69
2022/04/11 10:48:03;;;;;;;10.18;5.93;;;13.20;68.80;;;;;;5078320;28;20781;-69
2022/04/11 10:50:43;;;;;;;8.68;5.97;;;13.30;67.50;;;;;;5082593;28;20040;-68
2022/04/11 10:53:08;;;;;;;10.38;6.10;;;13.30;66.20;;;;;;5083299;28;20491;-69
2022/04/11 10:55:35;;;;;;;11.52;5.88;;;13.30;67.10;;;;;;5080581;28;20089;-69
2022/04/11 10:58:01;;;;;;;9.90;6.10;;;13.40;67.00;;;;;;5080332;28;20056;-69
2022/04/11 11:00:29;;;;;;;10.18;6.15;;;13.40;65.60;;;;;;5078440;28;20036;-69
2022/04/11 11:02:56;;;;;;;8.52;5.45;;;13.40;66.00;;;;;;5080269;28;20048;-69
2022/04/11 11:05:39;;;;;;;9.48;6.13;;;13.50;66.40;;;;;;5078718;28;20139;-69
2022/04/11 11:08:10;;;;;;;9.50;6.30;;;13.60;65.30;;;;;;5082143;28;20052;-69
2022/04/11 11:10:59;;;;;;;10.27;6.70;;;13.60;64.80;;;;;;5081903;28;20156;-69
2022/04/11 11:13:39;;;;;;;9.18;6.85;;;13.60;64.10;;;;;;5080201;28;20140;-69
2022/04/11 11:16:07;;;;;;;9.55;6.65;;;13.70;66.40;;;;;;5080541;28;20048;-69
2022/04/11 11:18:48;;;;;;;8.90;6.40;;;13.70;66.10;;;;;;5079577;28;20052;-70
2022/04/11 11:21:14;;;;;;;11.02;7.50;;;13.80;65.20;;;;;;5082583;28;20479;-69
2022/04/11 11:23:40;;;;;;;11.65;7.68;;;13.90;66.20;;;;;;5080884;28;20059;-69
2022/04/11 11:26:13;;;;;;;12.48;7.47;;;13.90;65.60;;;;;;5080386;28;20059;-69
2022/04/11 11:28:44;;;;;;;11.73;8.07;;;13.90;61.50;;;;;;5082352;28;20051;-69
2022/04/11 11:31:11;;;;;;;9.95;7.45;;;13.90;64.00;;;;;;5079123;28;20499;-69
2022/04/11 11:33:37;;;;;;;11.30;7.30;;;13.90;64.60;;;;;;5081262;28;20139;-69
2022/04/11 11:36:03;;;;;;;10.45;7.10;;;14.00;65.70;;;;;;5080590;28;20052;-69
2022/04/11 11:38:31;;;;;;;12.20;8.40;;;14.00;65.80;;;;;;5079672;28;20051;-69
2022/04/11 11:41:03;;;;;;;10.02;7.47;;;14.00;66.10;;;;;;5082158;28;20036;-69
2022/04/11 11:43:30;;;;;;;10.02;8.00;;;14.00;64.70;;;;;;5080218;28;20093;-69
2022/04/11 11:46:03;;;;;;;11.13;7.60;;;14.00;64.80;;;;;;5078526;28;20098;-69
2022/04/11 11:48:33;;;;;;;10.38;7.47;;;14.00;64.20;;;;;;5080406;28;20153;-69
2022/04/11 11:51:01;;;;;;;9.75;7.28;;;14.10;66.00;;;;;;5079403;28;20453;-69
2022/04/11 11:53:41;;;;;;;12.02;7.45;;;14.10;65.10;;;;;;5080260;28;20485;-69
2022/04/11 11:56:09;;;;;;;10.35;7.28;;;14.20;62.90;;;;;;5077196;28;20079;-69
2022/04/11 11:58:37;;;;;;;11.65;8.60;;;14.20;65.20;;;;;;5079723;28;20059;-69
2022/04/11 12:01:10;;;;;;;12.70;7.78;;;14.20;64.80;;;;;;5080511;28;20044;-69
2022/04/11 12:06:24;;;;;;;11.57;8.43;;;14.20;65.70;;;;;;5079008;28;20427;-69
2022/04/11 12:08:57;;;;;;;12.15;8.65;;;14.30;65.60;;;;;;5081438;28;20048;-69
2022/04/11 12:11:27;;;;;;;11.30;8.70;;;14.40;65.70;;;;;;5077390;28;20047;-69
2022/04/11 12:14:00;;;;;;;13.65;8.65;;;14.40;64.80;;;;;;5076121;28;20044;-69
2022/04/11 12:16:26;;;;;;;11.88;8.35;;;14.50;65.20;;;;;;5076176;28;20043;-69
2022/04/11 12:18:57;;;;;;;13.70;8.35;;;14.40;64.60;;;;;;5077036;28;20339;-69
2022/04/11 12:21:30;;;;;;;11.68;8.60;;;14.50;64.40;;;;;;5081479;28;20087;-69
2022/04/11 12:23:56;;;;;;;12.68;8.80;;;14.50;63.50;;;;;;5079103;28;20040;-69
2022/04/11 12:26:26;;;;;;;12.43;9.07;;;14.50;63.00;;;;;;5077909;28;20514;-70
2022/04/11 12:28:51;;;;;;;14.82;8.70;;;14.60;63.60;;;;;;5080363;28;20083;-69
2022/04/11 12:31:18;;;;;;;13.10;8.65;;;14.70;64.10;;;;;;5079899;28;20116;-69
2022/04/11 12:33:49;;;;;;;10.35;8.05;;;14.80;62.30;;;;;;5079546;28;20040;-69
2022/04/11 12:36:22;;;;;;;12.05;8.93;;;14.80;63.00;;;;;;5080150;28;20043;-69
2022/04/11 12:38:47;;;;;;;11.88;8.90;;;14.80;62.90;;;;;;5081534;28;20052;-69
2022/04/11 12:41:36;;;;;;;13.82;8.95;;;14.80;63.80;;;;;;5081358;28;20066;-69
2022/04/11 12:44:40;;;;;;;13.82;9.30;;;14.90;62.90;;;;;;5080819;28;20043;-69
2022/04/11 12:47:06;;;;;;;11.52;8.60;;;14.80;61.20;;;;;;5014668;28;20480;-69
2022/04/11 12:49:52;;;;;;;12.98;9.32;;;14.80;62.40;;;;;;5067293;28;20044;-69
2022/04/11 12:52:22;;;;;;;14.85;9.20;;;14.90;62.30;;;;;;5082929;28;20052;-69
2022/04/11 12:55:00;;;;;;;10.70;8.68;;;14.90;62.90;;;;;;5080828;28;20082;-69